sensor_id;sensor_type;location;lat;lon;timestamp;pressure;altitude;pressure_sealevel;temperature;humidity
72558;BME280;60583;50.094;8.748;2023-04-09T00:00:22;101390.13;;;8.52;71.06
72558;BME280;60583;50.094;8.748;2023-04-09T00:02:47;101396.28;;;8.53;71.04
72558;BME280;60583;50.094;8.748;2023-04-09T00:05:13;101394.78;;;8.50;70.51
72558;BME280;60583;50.094;8.748;2023-04-09T00:07:41;101368.38;;;8.23;70.88
72558;BME280;60583;50.094;8.748;2023-04-09T00:10:07;101355.75;;;8.25;70.65
72558;BME280;60583;50.094;8.748;2023-04-09T00:12:33;101379.75;;;8.33;70.90
72558;BME280;60583;50.094;8.748;2023-04-09T00:14:58;101359.34;;;8.16;71.97
72558;BME280;60583;50.094;8.748;2023-04-09T00:17:23;101365.78;;;8.31;71.00
72558;BME280;60583;50.094;8.748;2023-04-09T00:19:49;101391.09;;;8.43;70.86
72558;BME280;60583;50.094;8.748;2023-04-09T00:22:14;101394.34;;;8.29;71.86
72558;BME280;60583;50.094;8.748;2023-04-09T00:24:40;101384.84;;;8.26;72.58
72558;BME280;60583;50.094;8.748;2023-04-09T00:27:06;101387.66;;;8.25;72.15
72558;BME280;60583;50.094;8.748;2023-04-09T00:29:31;101361.00;;;8.09;71.80
72558;BME280;60583;50.094;8.748;2023-04-09T00:31:56;101381.25;;;8.10;72.66
72558;BME280;60583;50.094;8.748;2023-04-09T00:34:22;101393.69;;;8.09;72.49
72558;BME280;60583;50.094;8.748;2023-04-09T00:36:47;101363.09;;;7.97;72.83
72558;BME280;60583;50.094;8.748;2023-04-09T00:39:13;101389.72;;;8.13;73.04
72558;BME280;60583;50.094;8.748;2023-04-09T00:41:38;101344.94;;;7.85;73.12
72558;BME280;60583;50.094;8.748;2023-04-09T00:44:04;101356.63;;;8.00;73.35
72558;BME280;60583;50.094;8.748;2023-04-09T00:46:30;101370.28;;;8.05;73.57
72558;BME280;60583;50.094;8.748;2023-04-09T00:48:56;101378.56;;;8.02;73.42
72558;BME280;60583;50.094;8.748;2023-04-09T00:51:22;101376.88;;;8.01;74.66
72558;BME280;60583;50.094;8.748;2023-04-09T00:53:47;101373.91;;;8.04;74.41
72558;BME280;60583;50.094;8.748;2023-04-09T00:56:14;101372.28;;;8.03;74.17
72558;BME280;60583;50.094;8.748;2023-04-09T00:58:41;101350.19;;;7.77;74.47
72558;BME280;60583;50.094;8.748;2023-04-09T01:01:07;101368.91;;;8.01;73.95
72558;BME280;60583;50.094;8.748;2023-04-09T01:03:32;101384.03;;;8.00;73.68
72558;BME280;60583;50.094;8.748;2023-04-09T01:06:09;101384.84;;;8.01;74.28
72558;BME280;60583;50.094;8.748;2023-04-09T01:09:01;101354.34;;;7.79;73.87
72558;BME280;60583;50.094;8.748;2023-04-09T01:11:34;101381.31;;;7.92;74.52
72558;BME280;60583;50.094;8.748;2023-04-09T01:14:07;101313.13;;;7.41;74.20
72558;BME280;60583;50.094;8.748;2023-04-09T01:16:39;101380.44;;;7.84;74.61
72558;BME280;60583;50.094;8.748;2023-04-09T01:19:27;101345.59;;;7.61;74.77
72558;BME280;60583;50.094;8.748;2023-04-09T01:21:59;101373.19;;;7.68;75.08
72558;BME280;60583;50.094;8.748;2023-04-09T01:27:05;101381.50;;;7.47;76.45
72558;BME280;60583;50.094;8.748;2023-04-09T01:29:34;101375.66;;;7.44;76.01
72558;BME280;60583;50.094;8.748;2023-04-09T01:32:01;101372.34;;;7.42;75.79
72558;BME280;60583;50.094;8.748;2023-04-09T01:34:27;101384.41;;;7.36;76.40
72558;BME280;60583;50.094;8.748;2023-04-09T01:36:57;101387.50;;;7.32;76.96
72558;BME280;60583;50.094;8.748;2023-04-09T01:39:23;101386.38;;;7.34;76.19
72558;BME280;60583;50.094;8.748;2023-04-09T01:41:49;101377.28;;;7.19;76.88
72558;BME280;60583;50.094;8.748;2023-04-09T01:44:16;101380.25;;;7.16;76.75
72558;BME280;60583;50.094;8.748;2023-04-09T01:46:45;101391.91;;;7.23;76.90
72558;BME280;60583;50.094;8.748;2023-04-09T01:49:11;101384.94;;;7.22;76.96
72558;BME280;60583;50.094;8.748;2023-04-09T01:51:36;101373.97;;;7.17;77.35
72558;BME280;60583;50.094;8.748;2023-04-09T01:54:03;101383.19;;;7.13;76.99
72558;BME280;60583;50.094;8.748;2023-04-09T01:56:39;101355.25;;;7.01;76.92
72558;BME280;60583;50.094;8.748;2023-04-09T01:59:05;101372.28;;;7.16;77.02
72558;BME280;60583;50.094;8.748;2023-04-09T02:01:34;101357.22;;;6.99;77.45
72558;BME280;60583;50.094;8.748;2023-04-09T02:04:04;101350.03;;;6.91;76.87
72558;BME280;60583;50.094;8.748;2023-04-09T02:06:39;101388.03;;;7.00;77.32
72558;BME280;60583;50.094;8.748;2023-04-09T02:09:08;101386.97;;;6.93;77.90
72558;BME280;60583;50.094;8.748;2023-04-09T02:11:37;101375.59;;;6.83;78.26
72558;BME280;60583;50.094;8.748;2023-04-09T02:14:05;101380.50;;;6.78;78.90
72558;BME280;60583;50.094;8.748;2023-04-09T02:16:33;101381.94;;;6.72;78.73
72558;BME280;60583;50.094;8.748;2023-04-09T02:18:59;101382.38;;;6.68;79.18
72558;BME280;60583;50.094;8.748;2023-04-09T02:21:27;101361.31;;;6.49;79.32
72558;BME280;60583;50.094;8.748;2023-04-09T02:23:54;101346.84;;;6.43;79.28
72558;BME280;60583;50.094;8.748;2023-04-09T02:26:21;101386.34;;;6.64;79.53
72558;BME280;60583;50.094;8.748;2023-04-09T02:28:47;101314.78;;;6.19;79.20
72558;BME280;60583;50.094;8.748;2023-04-09T02:31:12;101378.00;;;6.59;79.11
72558;BME280;60583;50.094;8.748;2023-04-09T02:33:38;101351.91;;;6.36;79.75
72558;BME280;60583;50.094;8.748;2023-04-09T02:36:04;101376.59;;;6.55;79.98
72558;BME280;60583;50.094;8.748;2023-04-09T02:38:30;101285.63;;;5.92;79.84
72558;BME280;60583;50.094;8.748;2023-04-09T02:40:55;101373.88;;;6.47;79.76
72558;BME280;60583;50.094;8.748;2023-04-09T02:43:21;101371.38;;;6.45;80.34
72558;BME280;60583;50.094;8.748;2023-04-09T02:45:46;101350.22;;;6.35;80.02
72558;BME280;60583;50.094;8.748;2023-04-09T02:48:11;101346.25;;;6.22;80.35
72558;BME280;60583;50.094;8.748;2023-04-09T02:50:37;101376.72;;;6.35;81.08
72558;BME280;60583;50.094;8.748;2023-04-09T02:53:02;101359.50;;;6.22;80.40
72558;BME280;60583;50.094;8.748;2023-04-09T02:55:28;101344.38;;;6.05;80.82
72558;BME280;60583;50.094;8.748;2023-04-09T02:57:53;101372.59;;;6.23;80.88
72558;BME280;60583;50.094;8.748;2023-04-09T03:00:19;101383.44;;;6.30;81.15
72558;BME280;60583;50.094;8.748;2023-04-09T03:02:44;101359.81;;;6.09;81.31
72558;BME280;60583;50.094;8.748;2023-04-09T03:05:10;101352.88;;;6.08;81.33
72558;BME280;60583;50.094;8.748;2023-04-09T03:07:35;101369.72;;;6.07;81.87
72558;BME280;60583;50.094;8.748;2023-04-09T03:10:01;101363.75;;;6.05;81.85
72558;BME280;60583;50.094;8.748;2023-04-09T03:12:26;101367.38;;;6.04;81.86
72558;BME280;60583;50.094;8.748;2023-04-09T03:14:52;101354.28;;;6.03;81.64
72558;BME280;60583;50.094;8.748;2023-04-09T03:17:17;101346.00;;;5.88;81.38
72558;BME280;60583;50.094;8.748;2023-04-09T03:19:43;101362.94;;;5.95;81.57
72558;BME280;60583;50.094;8.748;2023-04-09T03:22:08;101372.41;;;5.98;81.79
72558;BME280;60583;50.094;8.748;2023-04-09T03:24:34;101340.28;;;5.73;82.29
72558;BME280;60583;50.094;8.748;2023-04-09T03:26:59;101353.50;;;5.83;81.55
72558;BME280;60583;50.094;8.748;2023-04-09T03:29:25;101356.84;;;5.85;81.60
72558;BME280;60583;50.094;8.748;2023-04-09T03:31:50;101341.66;;;5.77;81.73
72558;BME280;60583;50.094;8.748;2023-04-09T03:34:16;101348.34;;;5.72;81.94
72558;BME280;60583;50.094;8.748;2023-04-09T03:36:41;101357.69;;;5.76;81.99
72558;BME280;60583;50.094;8.748;2023-04-09T03:39:06;101359.63;;;5.74;82.31
72558;BME280;60583;50.094;8.748;2023-04-09T03:41:32;101337.41;;;5.57;82.44
72558;BME280;60583;50.094;8.748;2023-04-09T03:43:57;101347.97;;;5.67;82.50
72558;BME280;60583;50.094;8.748;2023-04-09T03:46:24;101350.19;;;5.62;82.00
72558;BME280;60583;50.094;8.748;2023-04-09T03:48:49;101346.06;;;5.50;82.44
72558;BME280;60583;50.094;8.748;2023-04-09T03:51:16;101350.50;;;5.49;82.77
72558;BME280;60583;50.094;8.748;2023-04-09T03:53:42;101348.97;;;5.47;82.75
72558;BME280;60583;50.094;8.748;2023-04-09T03:56:08;101368.91;;;5.51;82.97
72558;BME280;60583;50.094;8.748;2023-04-09T03:58:33;101342.19;;;5.35;82.60
72558;BME280;60583;50.094;8.748;2023-04-09T04:01:00;101364.72;;;5.39;82.95
72558;BME280;60583;50.094;8.748;2023-04-09T04:03:25;101303.81;;;4.92;82.99
72558;BME280;60583;50.094;8.748;2023-04-09T04:05:51;101359.41;;;5.39;82.99
72558;BME280;60583;50.094;8.748;2023-04-09T04:08:16;101326.19;;;5.17;82.50
72558;BME280;60583;50.094;8.748;2023-04-09T04:10:42;101322.72;;;5.16;82.72
72558;BME280;60583;50.094;8.748;2023-04-09T04:13:07;101360.28;;;5.30;83.27
72558;BME280;60583;50.094;8.748;2023-04-09T04:15:38;101338.03;;;5.23;82.90
72558;BME280;60583;50.094;8.748;2023-04-09T04:18:04;101297.44;;;4.85;82.54
72558;BME280;60583;50.094;8.748;2023-04-09T04:20:31;101349.16;;;5.16;83.00
72558;BME280;60583;50.094;8.748;2023-04-09T04:22:57;101355.00;;;5.10;83.41
72558;BME280;60583;50.094;8.748;2023-04-09T04:25:22;101346.78;;;5.04;83.09
72558;BME280;60583;50.094;8.748;2023-04-09T04:27:48;101355.00;;;5.01;83.26
72558;BME280;60583;50.094;8.748;2023-04-09T04:30:13;101360.03;;;5.13;83.56
72558;BME280;60583;50.094;8.748;2023-04-09T04:32:39;101340.13;;;4.90;83.80
72558;BME280;60583;50.094;8.748;2023-04-09T04:35:04;101323.00;;;4.75;84.08
72558;BME280;60583;50.094;8.748;2023-04-09T04:37:30;101360.84;;;4.95;84.26
72558;BME280;60583;50.094;8.748;2023-04-09T04:39:55;101367.66;;;4.97;84.03
72558;BME280;60583;50.094;8.748;2023-04-09T04:42:21;101343.72;;;4.80;84.24
72558;BME280;60583;50.094;8.748;2023-04-09T04:44:47;101345.69;;;4.78;84.08
72558;BME280;60583;50.094;8.748;2023-04-09T04:47:12;101267.91;;;4.23;84.48
72558;BME280;60583;50.094;8.748;2023-04-09T04:49:38;101371.16;;;4.88;84.29
72558;BME280;60583;50.094;8.748;2023-04-09T04:52:04;101369.63;;;4.86;84.21
72558;BME280;60583;50.094;8.748;2023-04-09T04:54:30;101353.72;;;4.76;84.03
72558;BME280;60583;50.094;8.748;2023-04-09T04:56:55;101373.63;;;4.80;84.65
72558;BME280;60583;50.094;8.748;2023-04-09T04:59:21;101379.88;;;4.79;84.57
72558;BME280;60583;50.094;8.748;2023-04-09T05:01:46;101380.56;;;4.81;84.13
72558;BME280;60583;50.094;8.748;2023-04-09T05:04:12;101367.91;;;4.75;83.87
72558;BME280;60583;50.094;8.748;2023-04-09T05:06:37;101367.91;;;4.75;84.01
72558;BME280;60583;50.094;8.748;2023-04-09T05:09:03;101381.81;;;4.77;84.67
72558;BME280;60583;50.094;8.748;2023-04-09T05:11:28;101368.34;;;4.71;84.76
72558;BME280;60583;50.094;8.748;2023-04-09T05:13:54;101388.63;;;4.80;84.38
72558;BME280;60583;50.094;8.748;2023-04-09T05:16:19;101366.31;;;4.53;85.46
72558;BME280;60583;50.094;8.748;2023-04-09T05:18:45;101382.50;;;4.79;85.23
72558;BME280;60583;50.094;8.748;2023-04-09T05:21:11;101382.09;;;4.74;85.05
72558;BME280;60583;50.094;8.748;2023-04-09T05:23:36;101380.69;;;4.70;85.07
72558;BME280;60583;50.094;8.748;2023-04-09T05:26:02;101385.00;;;4.71;85.16
72558;BME280;60583;50.094;8.748;2023-04-09T05:28:27;101389.22;;;4.83;84.99
72558;BME280;60583;50.094;8.748;2023-04-09T05:30:53;101344.69;;;4.69;84.92
72558;BME280;60583;50.094;8.748;2023-04-09T05:33:18;101371.16;;;4.88;84.92
72558;BME280;60583;50.094;8.748;2023-04-09T05:35:44;101381.13;;;4.94;84.22
72558;BME280;60583;50.094;8.748;2023-04-09T05:38:10;101360.00;;;4.85;84.45
72558;BME280;60583;50.094;8.748;2023-04-09T05:40:35;101375.59;;;5.07;84.46
72558;BME280;60583;50.094;8.748;2023-04-09T05:43:01;101364.75;;;5.00;84.31
72558;BME280;60583;50.094;8.748;2023-04-09T05:45:26;101387.56;;;5.21;84.56
72558;BME280;60583;50.094;8.748;2023-04-09T05:47:54;101390.63;;;5.26;84.45
72558;BME280;60583;50.094;8.748;2023-04-09T05:50:20;101391.56;;;5.34;84.56
72558;BME280;60583;50.094;8.748;2023-04-09T05:52:45;101403.97;;;5.53;84.36
72558;BME280;60583;50.094;8.748;2023-04-09T05:55:11;101335.81;;;5.18;83.96
72558;BME280;60583;50.094;8.748;2023-04-09T05:57:36;101399.47;;;5.72;83.86
72558;BME280;60583;50.094;8.748;2023-04-09T06:00:02;101405.59;;;5.82;82.80
72558;BME280;60583;50.094;8.748;2023-04-09T06:02:28;101393.91;;;5.75;82.80
72558;BME280;60583;50.094;8.748;2023-04-09T06:04:53;101391.09;;;5.77;83.34
72558;BME280;60583;50.094;8.748;2023-04-09T06:07:19;101364.50;;;5.69;82.80
72558;BME280;60583;50.094;8.748;2023-04-09T06:09:45;101365.09;;;5.63;82.58
72558;BME280;60583;50.094;8.748;2023-04-09T06:12:11;101402.25;;;5.80;82.53
72558;BME280;60583;50.094;8.748;2023-04-09T06:14:37;101391.94;;;5.87;82.93
72558;BME280;60583;50.094;8.748;2023-04-09T06:17:03;101391.19;;;6.04;82.65
72558;BME280;60583;50.094;8.748;2023-04-09T06:19:28;101380.19;;;5.99;82.40
72558;BME280;60583;50.094;8.748;2023-04-09T06:21:54;101376.81;;;6.16;83.37
72558;BME280;60583;50.094;8.748;2023-04-09T06:24:19;101391.72;;;6.44;83.09
72558;BME280;60583;50.094;8.748;2023-04-09T06:26:45;101382.81;;;6.46;82.10
72558;BME280;60583;50.094;8.748;2023-04-09T06:29:10;101381.31;;;6.61;82.04
72558;BME280;60583;50.094;8.748;2023-04-09T06:31:36;101357.94;;;6.56;82.62
72558;BME280;60583;50.094;8.748;2023-04-09T06:34:01;101339.50;;;6.55;81.62
72558;BME280;60583;50.094;8.748;2023-04-09T06:36:27;101393.66;;;6.97;81.81
72558;BME280;60583;50.094;8.748;2023-04-09T06:38:53;101393.66;;;6.97;81.66
72558;BME280;60583;50.094;8.748;2023-04-09T06:41:22;101396.97;;;6.99;81.85
72558;BME280;60583;50.094;8.748;2023-04-09T06:43:48;101369.09;;;6.95;81.37
72558;BME280;60583;50.094;8.748;2023-04-09T06:46:14;101399.03;;;7.23;81.06
72558;BME280;60583;50.094;8.748;2023-04-09T06:48:42;101398.34;;;7.38;80.00
72558;BME280;60583;50.094;8.748;2023-04-09T06:51:09;101409.09;;;7.54;79.99
72558;BME280;60583;50.094;8.748;2023-04-09T06:53:36;101395.66;;;7.56;80.45
72558;BME280;60583;50.094;8.748;2023-04-09T06:56:02;101386.72;;;7.57;80.59
72558;BME280;60583;50.094;8.748;2023-04-09T06:58:27;101404.97;;;7.78;80.12
72558;BME280;60583;50.094;8.748;2023-04-09T07:00:53;101394.25;;;7.87;79.85
72558;BME280;60583;50.094;8.748;2023-04-09T07:03:18;101412.53;;;7.90;79.56
72558;BME280;60583;50.094;8.748;2023-04-09T07:05:44;101403.06;;;7.96;80.48
72558;BME280;60583;50.094;8.748;2023-04-09T07:08:10;101404.13;;;8.03;79.67
72558;BME280;60583;50.094;8.748;2023-04-09T07:10:36;101407.97;;;8.08;79.13
72558;BME280;60583;50.094;8.748;2023-04-09T07:13:01;101408.31;;;8.05;79.40
72558;BME280;60583;50.094;8.748;2023-04-09T07:15:27;101400.03;;;8.16;79.41
72558;BME280;60583;50.094;8.748;2023-04-09T07:17:52;101412.50;;;8.16;79.31
72558;BME280;60583;50.094;8.748;2023-04-09T07:20:18;101402.59;;;8.26;79.32
72558;BME280;60583;50.094;8.748;2023-04-09T07:22:43;101395.47;;;8.26;78.84
72558;BME280;60583;50.094;8.748;2023-04-09T07:25:09;101395.03;;;8.39;78.46
72558;BME280;60583;50.094;8.748;2023-04-09T07:27:34;101394.19;;;8.39;78.18
72558;BME280;60583;50.094;8.748;2023-04-09T07:30:00;101371.81;;;8.49;77.41
72558;BME280;60583;50.094;8.748;2023-04-09T07:32:26;101396.16;;;8.70;77.57
72558;BME280;60583;50.094;8.748;2023-04-09T07:34:55;101373.75;;;8.73;77.01
72558;BME280;60583;50.094;8.748;2023-04-09T07:37:21;101399.56;;;8.88;76.28
72558;BME280;60583;50.094;8.748;2023-04-09T07:39:48;101408.91;;;9.09;76.54
72558;BME280;60583;50.094;8.748;2023-04-09T07:42:14;101411.72;;;9.07;75.90
72558;BME280;60583;50.094;8.748;2023-04-09T07:44:39;101407.41;;;9.14;75.42
72558;BME280;60583;50.094;8.748;2023-04-09T07:47:06;101411.56;;;9.25;74.58
72558;BME280;60583;50.094;8.748;2023-04-09T07:49:34;101414.91;;;9.35;74.42
72558;BME280;60583;50.094;8.748;2023-04-09T07:52:00;101420.44;;;9.41;73.79
72558;BME280;60583;50.094;8.748;2023-04-09T07:54:25;101412.59;;;9.56;73.06
72558;BME280;60583;50.094;8.748;2023-04-09T07:56:51;101408.78;;;9.67;73.96
72558;BME280;60583;50.094;8.748;2023-04-09T07:59:17;101396.28;;;9.59;70.97
72558;BME280;60583;50.094;8.748;2023-04-09T08:01:43;101428.56;;;9.88;71.63
72558;BME280;60583;50.094;8.748;2023-04-09T08:04:09;101380.47;;;9.82;70.83
72558;BME280;60583;50.094;8.748;2023-04-09T08:06:37;101411.03;;;10.10;69.71
72558;BME280;60583;50.094;8.748;2023-04-09T08:09:02;101418.03;;;10.27;69.57
72558;BME280;60583;50.094;8.748;2023-04-09T08:11:28;101403.22;;;10.24;68.55
72558;BME280;60583;50.094;8.748;2023-04-09T08:13:54;101418.28;;;10.40;67.78
72558;BME280;60583;50.094;8.748;2023-04-09T08:16:20;101425.13;;;10.43;67.25
72558;BME280;60583;50.094;8.748;2023-04-09T08:18:47;101418.94;;;10.50;66.94
72558;BME280;60583;50.094;8.748;2023-04-09T08:21:13;101427.13;;;10.49;66.73
72558;BME280;60583;50.094;8.748;2023-04-09T08:23:39;101419.44;;;10.46;67.03
72558;BME280;60583;50.094;8.748;2023-04-09T08:26:05;101437.44;;;10.52;65.81
72558;BME280;60583;50.094;8.748;2023-04-09T08:28:30;101432.72;;;10.62;66.56
72558;BME280;60583;50.094;8.748;2023-04-09T08:30:56;101430.09;;;10.54;66.20
72558;BME280;60583;50.094;8.748;2023-04-09T08:33:22;101434.34;;;10.71;64.75
72558;BME280;60583;50.094;8.748;2023-04-09T08:35:47;101414.94;;;10.46;64.40
72558;BME280;60583;50.094;8.748;2023-04-09T08:38:13;101438.41;;;10.59;64.97
72558;BME280;60583;50.094;8.748;2023-04-09T08:40:40;101421.03;;;10.63;64.39
72558;BME280;60583;50.094;8.748;2023-04-09T08:43:05;101434.94;;;10.89;63.46
72558;BME280;60583;50.094;8.748;2023-04-09T08:45:32;101426.44;;;10.85;62.71
72558;BME280;60583;50.094;8.748;2023-04-09T08:47:57;101427.31;;;11.09;62.26
72558;BME280;60583;50.094;8.748;2023-04-09T08:50:25;101416.09;;;11.13;62.36
72558;BME280;60583;50.094;8.748;2023-04-09T08:52:52;101438.56;;;11.27;62.04
72558;BME280;60583;50.094;8.748;2023-04-09T08:55:17;101440.63;;;11.39;61.73
72558;BME280;60583;50.094;8.748;2023-04-09T08:57:43;101434.78;;;11.59;60.93
72558;BME280;60583;50.094;8.748;2023-04-09T09:00:09;101422.28;;;11.59;61.39
72558;BME280;60583;50.094;8.748;2023-04-09T09:02:34;101440.44;;;11.86;60.51
72558;BME280;60583;50.094;8.748;2023-04-09T09:05:00;101438.47;;;12.03;59.35
72558;BME280;60583;50.094;8.748;2023-04-09T09:07:29;101437.44;;;12.04;59.98
72558;BME280;60583;50.094;8.748;2023-04-09T09:09:59;101440.94;;;12.04;60.22
72558;BME280;60583;50.094;8.748;2023-04-09T09:12:38;101446.84;;;12.14;59.37
72558;BME280;60583;50.094;8.748;2023-04-09T09:15:27;101422.44;;;12.03;59.35
72558;BME280;60583;50.094;8.748;2023-04-09T09:17:56;101434.13;;;12.16;58.85
72558;BME280;60583;50.094;8.748;2023-04-09T09:20:22;101424.38;;;12.38;58.39
72558;BME280;60583;50.094;8.748;2023-04-09T09:22:53;101412.50;;;12.76;56.50
72558;BME280;60583;50.094;8.748;2023-04-09T09:25:19;101437.63;;;12.75;57.29
72558;BME280;60583;50.094;8.748;2023-04-09T09:27:49;101430.03;;;12.79;56.21
72558;BME280;60583;50.094;8.748;2023-04-09T09:30:22;101438.13;;;13.57;55.68
72558;BME280;60583;50.094;8.748;2023-04-09T09:32:51;101421.06;;;13.58;54.87
72558;BME280;60583;50.094;8.748;2023-04-09T09:35:18;101424.34;;;13.81;54.33
72558;BME280;60583;50.094;8.748;2023-04-09T09:37:43;101420.25;;;14.13;52.74
72558;BME280;60583;50.094;8.748;2023-04-09T09:40:09;101428.13;;;14.49;53.80
72558;BME280;60583;50.094;8.748;2023-04-09T09:42:35;101431.44;;;14.23;52.80
72558;BME280;60583;50.094;8.748;2023-04-09T09:45:02;101423.16;;;14.46;52.86
72558;BME280;60583;50.094;8.748;2023-04-09T09:47:42;101430.31;;;14.73;51.33
72558;BME280;60583;50.094;8.748;2023-04-09T09:50:08;101428.06;;;14.83;52.13
72558;BME280;60583;50.094;8.748;2023-04-09T09:52:33;101423.53;;;14.84;51.28
72558;BME280;60583;50.094;8.748;2023-04-09T09:55:03;101361.66;;;15.18;50.65
72558;BME280;60583;50.094;8.748;2023-04-09T09:57:32;101423.47;;;15.31;48.97
72558;BME280;60583;50.094;8.748;2023-04-09T10:00:01;101418.22;;;15.03;49.11
72558;BME280;60583;50.094;8.748;2023-04-09T10:02:30;101420.91;;;14.90;50.20
72558;BME280;60583;50.094;8.748;2023-04-09T10:05:02;101418.56;;;14.74;50.18
72558;BME280;60583;50.094;8.748;2023-04-09T10:07:30;101410.22;;;15.10;49.61
72558;BME280;60583;50.094;8.748;2023-04-09T10:09:57;101404.00;;;15.16;49.64
72558;BME280;60583;50.094;8.748;2023-04-09T10:12:24;101407.34;;;16.29;47.25
72558;BME280;60583;50.094;8.748;2023-04-09T10:14:51;101387.00;;;16.46;44.41
72558;BME280;60583;50.094;8.748;2023-04-09T10:17:18;101372.22;;;15.98;45.70
72558;BME280;60583;50.094;8.748;2023-04-09T10:19:51;101394.47;;;16.44;44.05
72558;BME280;60583;50.094;8.748;2023-04-09T10:22:20;101393.75;;;15.85;43.90
72558;BME280;60583;50.094;8.748;2023-04-09T10:24:48;101398.91;;;15.41;45.00
72558;BME280;60583;50.094;8.748;2023-04-09T10:27:15;101373.97;;;14.86;45.81
72558;BME280;60583;50.094;8.748;2023-04-09T10:29:46;101384.94;;;14.37;47.95
72558;BME280;60583;50.094;8.748;2023-04-09T10:32:17;101388.75;;;14.22;49.02
72558;BME280;60583;50.094;8.748;2023-04-09T10:34:45;101378.69;;;13.75;48.00
72558;BME280;60583;50.094;8.748;2023-04-09T10:37:16;101366.81;;;13.35;49.05
72558;BME280;60583;50.094;8.748;2023-04-09T10:39:46;101392.06;;;13.47;48.52
72558;BME280;60583;50.094;8.748;2023-04-09T10:42:14;101384.56;;;13.36;48.21
72558;BME280;60583;50.094;8.748;2023-04-09T10:44:40;101339.75;;;12.88;48.07
72558;BME280;60583;50.094;8.748;2023-04-09T10:47:07;101398.06;;;13.07;48.32
72558;BME280;60583;50.094;8.748;2023-04-09T10:49:35;101388.06;;;12.79;47.65
72558;BME280;60583;50.094;8.748;2023-04-09T10:52:12;101388.78;;;12.88;49.28
72558;BME280;60583;50.094;8.748;2023-04-09T10:54:44;101380.13;;;12.86;50.04
72558;BME280;60583;50.094;8.748;2023-04-09T10:57:17;101393.00;;;12.97;50.16
72558;BME280;60583;50.094;8.748;2023-04-09T10:59:44;101366.53;;;12.88;50.19
72558;BME280;60583;50.094;8.748;2023-04-09T11:02:40;101364.56;;;12.96;50.11
72558;BME280;60583;50.094;8.748;2023-04-09T11:05:27;101379.97;;;13.51;49.59
72558;BME280;60583;50.094;8.748;2023-04-09T11:07:58;101389.91;;;13.57;49.32
72558;BME280;60583;50.094;8.748;2023-04-09T11:10:27;101383.94;;;13.34;48.63
72558;BME280;60583;50.094;8.748;2023-04-09T11:12:52;101375.53;;;13.16;48.40
72558;BME280;60583;50.094;8.748;2023-04-09T11:15:19;101385.28;;;13.23;49.01
72558;BME280;60583;50.094;8.748;2023-04-09T11:17:46;101377.88;;;13.25;49.36
72558;BME280;60583;50.094;8.748;2023-04-09T11:20:13;101362.25;;;13.08;49.04
72558;BME280;60583;50.094;8.748;2023-04-09T11:22:38;101332.50;;;13.03;49.29
72558;BME280;60583;50.094;8.748;2023-04-09T11:25:04;101328.25;;;13.57;48.28
72558;BME280;60583;50.094;8.748;2023-04-09T11:27:30;101369.75;;;15.83;44.38
72558;BME280;60583;50.094;8.748;2023-04-09T11:29:55;101364.03;;;17.26;42.12
72558;BME280;60583;50.094;8.748;2023-04-09T11:32:21;101360.94;;;17.47;40.13
72558;BME280;60583;50.094;8.748;2023-04-09T11:34:46;101363.41;;;19.19;37.83
72558;BME280;60583;50.094;8.748;2023-04-09T11:37:15;101356.59;;;21.23;33.75
72558;BME280;60583;50.094;8.748;2023-04-09T11:39:44;101354.84;;;20.61;34.17
72558;BME280;60583;50.094;8.748;2023-04-09T11:42:16;101323.06;;;18.76;37.06
72558;BME280;60583;50.094;8.748;2023-04-09T11:44:43;101356.44;;;17.91;38.64
72558;BME280;60583;50.094;8.748;2023-04-09T11:47:09;101309.78;;;16.85;39.93
72558;BME280;60583;50.094;8.748;2023-04-09T11:49:35;101330.22;;;16.61;40.93
72558;BME280;60583;50.094;8.748;2023-04-09T11:52:01;101340.34;;;16.08;41.46
72558;BME280;60583;50.094;8.748;2023-04-09T11:54:32;101347.84;;;15.47;42.14
72558;BME280;60583;50.094;8.748;2023-04-09T11:56:58;101356.28;;;15.83;41.46
72558;BME280;60583;50.094;8.748;2023-04-09T11:59:24;101359.56;;;16.18;40.37
72558;BME280;60583;50.094;8.748;2023-04-09T12:01:50;101351.19;;;16.90;38.39
72558;BME280;60583;50.094;8.748;2023-04-09T12:04:19;101346.31;;;16.10;40.09
72558;BME280;60583;50.094;8.748;2023-04-09T12:06:48;101354.44;;;15.84;41.37
72558;BME280;60583;50.094;8.748;2023-04-09T12:09:14;101342.88;;;15.38;41.98
72558;BME280;60583;50.094;8.748;2023-04-09T12:11:43;101335.09;;;14.69;42.56
72558;BME280;60583;50.094;8.748;2023-04-09T12:14:14;101336.03;;;14.42;43.51
72558;BME280;60583;50.094;8.748;2023-04-09T12:16:43;101335.25;;;14.14;42.85
72558;BME280;60583;50.094;8.748;2023-04-09T12:19:10;101349.94;;;14.24;43.46
72558;BME280;60583;50.094;8.748;2023-04-09T12:21:49;101349.69;;;14.47;42.32
72558;BME280;60583;50.094;8.748;2023-04-09T12:24:17;101354.59;;;14.37;42.99
72558;BME280;60583;50.094;8.748;2023-04-09T12:26:44;101350.00;;;14.31;43.01
72558;BME280;60583;50.094;8.748;2023-04-09T12:29:10;101362.91;;;14.21;42.58
72558;BME280;60583;50.094;8.748;2023-04-09T12:31:35;101331.69;;;14.06;42.41
72558;BME280;60583;50.094;8.748;2023-04-09T12:34:01;101339.75;;;14.06;42.12
72558;BME280;60583;50.094;8.748;2023-04-09T12:36:27;101345.13;;;14.13;42.34
72558;BME280;60583;50.094;8.748;2023-04-09T12:38:52;101332.91;;;15.05;40.04
72558;BME280;60583;50.094;8.748;2023-04-09T12:41:18;101334.50;;;16.18;37.50
72558;BME280;60583;50.094;8.748;2023-04-09T12:43:43;101329.19;;;18.35;33.60
72558;BME280;60583;50.094;8.748;2023-04-09T12:46:09;101318.97;;;19.26;32.39
72558;BME280;60583;50.094;8.748;2023-04-09T12:48:34;101314.78;;;20.11;30.34
72558;BME280;60583;50.094;8.748;2023-04-09T12:51:00;101284.97;;;20.79;29.88
72558;BME280;60583;50.094;8.748;2023-04-09T12:53:26;101263.97;;;20.86;28.31
72558;BME280;60583;50.094;8.748;2023-04-09T12:55:52;101311.84;;;19.66;30.69
72558;BME280;60583;50.094;8.748;2023-04-09T12:58:17;101304.94;;;18.10;32.98